Riverside, WA (98849)

5:47 AM PDT on September 20, 2014 (GMT -0700)
MesoWest OMAK WA US AGRIMET | Change Station
CLOSE
Current Station
Personal Weather Station
Location: Omak, WA
Elevation: 1233 ft
Nearby Weather Stations

Elev 1233 ft 48.40 °N, 119.58 °W | Updated 47 minutes ago

Clear
Clear
52 °F
Feels Like 52 °F
N
1
Wind Variable Wind from WNW
Gusts 2.0 mph

Today
High -- | Low -- °F
--% Chance of Precip.
Yesterday
High -- | Low -- °F
Precip. -- in
6:42 AM 7:00 PM
Waning Crescent, 12% visible
Pressure 30.12 in
Visibility 10.0 miles
Clouds Clear
Dew Point 46 °F
Humidity 80%
Rainfall 0.00 in
Snow Depth 0 in , 0 in , 0 in
UV 0 out of 12
Pollen 7.80 out of 12
Air Quality Not available.
Flu Activity Not available.
METAR KOMK 201153Z AUTO 34009KT 10SM CLR 14/08 A3014 RMK AO2 SLP200 T01390078 10194 20139 53015

More Conditions Fewer Conditions

Pressure 30.12 in
Visibility 10.0 miles
Clouds Clear
Dew Point 46 °F
Humidity 80%
Rainfall 0.00 in
Snow Depth 0 in , 0 in , 0 in
UV 0 out of 12
Pollen 7.80 out of 12
Air Quality Not available.
Flu Activity Not available.
METAR KOMK 201153Z AUTO 34009KT 10SM CLR 14/08 A3014 RMK AO2 SLP200 T01390078 10194 20139 53015

More Conditions Fewer Conditions

10-Day Weather Forecast

Almanac

Astronomy

Sep. 20, 2014 Rise Set
Actual Time 6:42 AM PDT 7:00 PM PDT
Civil Twilight 6:11 AM PDT 7:31 PM PDT
Nautical Twilight 5:34 AM PDT 8:08 PM PDT
Astronomical Twilight 4:55 AM PDT 8:46 PM PDT
Moon 3:13 AM PDT 5:16 PM PDT
Length of Visible Light 13h 20m
Length of Day
12h 17m
Tomorrow will be 3m 31s shorter.
Waning Crescent, 12% of the Moon is Illuminated
Today
Waning Crescent
Sep 24
New
Oct 1
First Quarter
Oct 8
Full
Oct 15
Last Quarter

Today's Extremes

State Highs State Lows

Community

WunderPhotos

Upload Photos

1,754,837 photos uploaded!

Nearby

Snow Depth

Station Depth Elevation
Mount Crag 0 in 4050 ft
June Lake 0 in 3340 ft
Harts Pass 0 in 6500 ft
White Pass E.S. 0 in 4500 ft
Pope Ridge 0 in 3540 ft

Earthquake Activity

City Distance Mag. Time & Date
No recent earthquake activity has been reported nearby.
Minimum magnitude displayed is 2.5.

Coastal Water Temperatures

Place Temperature
No Stations Reporting

Nearby Weather Stations